createdAt,value
2022-07-29T00:01:44.852Z,100764.75
2022-07-29T00:04:14.140Z,100757.94
2022-07-29T00:06:42.888Z,100758.00
2022-07-29T00:09:11.263Z,100760.84
2022-07-29T00:11:39.567Z,100772.44
2022-07-29T00:14:07.976Z,100776.25
2022-07-29T00:16:36.543Z,100790.53
2022-07-29T00:19:05.716Z,100773.66
2022-07-29T00:21:36.096Z,100766.09
2022-07-29T00:24:04.790Z,100760.00
2022-07-29T00:26:33.960Z,100749.84
2022-07-29T00:29:32.477Z,100750.19
2022-07-29T00:31:52.629Z,100749.41
2022-07-29T00:34:39.186Z,100751.91
2022-07-29T00:37:07.842Z,100753.81
2022-07-29T00:39:37.881Z,100750.38
2022-07-29T00:42:06.702Z,100745.16
2022-07-29T00:44:42.703Z,100761.16
2022-07-29T00:47:15.424Z,100760.66
2022-07-29T00:49:45.886Z,100766.78
2022-07-29T00:52:16.833Z,100765.69
2022-07-29T00:54:46.611Z,100760.06
2022-07-29T00:57:14.937Z,100758.41
2022-07-29T00:59:44.301Z,100751.47
2022-07-29T01:02:12.481Z,100744.06
2022-07-29T01:04:41.891Z,100741.97
2022-07-29T01:07:12.766Z,100749.56
2022-07-29T01:09:45.800Z,100743.91
2022-07-29T01:12:21.088Z,100743.78
2022-07-29T01:14:51.553Z,100736.69
2022-07-29T01:17:31.102Z,100743.00
2022-07-29T01:20:21.085Z,100748.47
2022-07-29T01:23:14.491Z,100746.81
2022-07-29T01:26:20.506Z,100746.56
2022-07-29T01:29:07.513Z,100738.81
2022-07-29T01:31:58.461Z,100727.03
2022-07-29T01:34:52.126Z,100725.72
2022-07-29T01:37:21.685Z,100721.31
2022-07-29T01:39:55.711Z,100725.81
2022-07-29T01:42:36.715Z,100721.59
2022-07-29T01:45:12.670Z,100724.78
2022-07-29T01:47:55.785Z,100717.88
2022-07-29T01:50:33.740Z,100717.63
2022-07-29T01:53:05.910Z,100717.03
2022-07-29T01:55:39.945Z,100709.50
2022-07-29T01:58:10.900Z,100711.69
2022-07-29T02:00:43.865Z,100710.63
2022-07-29T02:03:15.101Z,100710.47
2022-07-29T02:05:46.646Z,100703.69
2022-07-29T02:08:20.971Z,100710.63
2022-07-29T02:10:51.285Z,100709.16
2022-07-29T02:13:26.190Z,100702.41
2022-07-29T02:15:59.421Z,100712.06
2022-07-29T02:18:31.866Z,100722.19
2022-07-29T02:21:03.721Z,100733.38
2022-07-29T02:23:45.180Z,100727.91
2022-07-29T02:26:22.250Z,100736.34
2022-07-29T02:28:53.171Z,100743.50
2022-07-29T02:31:26.149Z,100744.34
2022-07-29T02:33:56.105Z,100748.13
2022-07-29T02:36:26.105Z,100731.06
2022-07-29T02:38:58.667Z,100725.25
2022-07-29T02:41:34.836Z,100728.63
2022-07-29T02:44:18.394Z,100733.47
2022-07-29T02:46:56.967Z,100742.13
2022-07-29T02:49:46.655Z,100747.84
2022-07-29T02:52:36.600Z,100741.34
2022-07-29T02:55:26.560Z,100729.19
2022-07-29T02:58:21.450Z,100732.34
2022-07-29T03:00:52.810Z,100738.06
2022-07-29T03:03:23.178Z,100732.19
2022-07-29T03:05:58.891Z,100740.00
2022-07-29T03:08:28.897Z,100739.22
2022-07-29T03:10:57.537Z,100739.44
2022-07-29T03:13:27.794Z,100737.84
2022-07-29T03:15:57.201Z,100736.97
2022-07-29T03:18:27.706Z,100735.94
2022-07-29T03:20:56.274Z,100739.50
2022-07-29T03:23:27.587Z,100740.94
2022-07-29T03:26:01.461Z,100738.84
2022-07-29T03:28:30.940Z,100740.75
2022-07-29T03:31:02.078Z,100740.75
2022-07-29T03:33:31.690Z,100747.75
2022-07-29T03:36:03.304Z,100753.22
2022-07-29T03:38:37.129Z,100754.28
2022-07-29T03:43:56.084Z,100752.63
